sensor_id;sensor_type;location;lat;lon;timestamp;pressure;altitude;pressure_sealevel;temperature;humidity
58698;BME280;44475;53.206;-6.106;2024-03-29T00:01:27;97607.81;;;20.53;48.16
58698;BME280;44475;53.206;-6.106;2024-03-29T00:03:53;97603.00;;;20.55;48.47
58698;BME280;44475;53.206;-6.106;2024-03-29T00:06:20;97603.47;;;20.59;48.21
58698;BME280;44475;53.206;-6.106;2024-03-29T00:08:46;97602.63;;;20.58;48.08
58698;BME280;44475;53.206;-6.106;2024-03-29T00:11:12;97611.88;;;20.64;47.75
58698;BME280;44475;53.206;-6.106;2024-03-29T00:13:39;97605.94;;;20.54;47.85
58698;BME280;44475;53.206;-6.106;2024-03-29T00:16:05;97613.94;;;20.62;47.96
58698;BME280;44475;53.206;-6.106;2024-03-29T00:18:32;97607.72;;;20.68;47.72
58698;BME280;44475;53.206;-6.106;2024-03-29T00:20:58;97613.84;;;20.48;48.14
58698;BME280;44475;53.206;-6.106;2024-03-29T00:23:24;97618.94;;;20.58;47.71
58698;BME280;44475;53.206;-6.106;2024-03-29T00:25:50;97611.28;;;20.69;47.53
58698;BME280;44475;53.206;-6.106;2024-03-29T00:28:17;97615.13;;;20.53;48.12
58698;BME280;44475;53.206;-6.106;2024-03-29T00:30:43;97609.09;;;20.57;47.90
58698;BME280;44475;53.206;-6.106;2024-03-29T00:33:10;97614.59;;;20.64;47.63
58698;BME280;44475;53.206;-6.106;2024-03-29T00:35:36;97615.38;;;20.58;47.73
58698;BME280;44475;53.206;-6.106;2024-03-29T00:38:02;97622.69;;;20.57;47.96
58698;BME280;44475;53.206;-6.106;2024-03-29T00:40:28;97622.50;;;20.59;47.80
58698;BME280;44475;53.206;-6.106;2024-03-29T00:42:54;97625.44;;;20.57;47.83
58698;BME280;44475;53.206;-6.106;2024-03-29T00:45:21;97616.41;;;20.57;47.77
58698;BME280;44475;53.206;-6.106;2024-03-29T00:47:47;97632.94;;;20.55;48.24
58698;BME280;44475;53.206;-6.106;2024-03-29T00:50:13;97628.53;;;20.54;48.09
58698;BME280;44475;53.206;-6.106;2024-03-29T00:52:39;97627.34;;;20.64;48.07
58698;BME280;44475;53.206;-6.106;2024-03-29T00:55:06;97619.94;;;20.79;47.23
58698;BME280;44475;53.206;-6.106;2024-03-29T00:57:32;97627.34;;;20.64;48.20
58698;BME280;44475;53.206;-6.106;2024-03-29T00:59:58;97627.44;;;20.77;47.37
58698;BME280;44475;53.206;-6.106;2024-03-29T01:02:24;97625.19;;;20.81;47.26
58698;BME280;44475;53.206;-6.106;2024-03-29T01:04:51;97627.81;;;20.67;48.09
58698;BME280;44475;53.206;-6.106;2024-03-29T01:07:18;97633.88;;;20.69;47.94
58698;BME280;44475;53.206;-6.106;2024-03-29T01:09:44;97641.41;;;20.67;47.88
58698;BME280;44475;53.206;-6.106;2024-03-29T01:12:11;97642.06;;;20.69;47.64
58698;BME280;44475;53.206;-6.106;2024-03-29T01:14:38;97650.91;;;20.78;48.06
58698;BME280;44475;53.206;-6.106;2024-03-29T01:17:04;97653.97;;;20.68;47.96
58698;BME280;44475;53.206;-6.106;2024-03-29T01:19:32;97663.16;;;20.67;47.99
58698;BME280;44475;53.206;-6.106;2024-03-29T01:21:58;97650.44;;;20.75;47.55
58698;BME280;44475;53.206;-6.106;2024-03-29T01:24:25;97650.72;;;20.80;48.25
58698;BME280;44475;53.206;-6.106;2024-03-29T01:26:51;97652.63;;;20.57;48.55
58698;BME280;44475;53.206;-6.106;2024-03-29T01:29:17;97651.13;;;20.55;48.94
58698;BME280;44475;53.206;-6.106;2024-03-29T01:31:44;97647.44;;;20.40;49.47
58698;BME280;44475;53.206;-6.106;2024-03-29T01:34:10;97655.72;;;20.54;49.33
58698;BME280;44475;53.206;-6.106;2024-03-29T01:36:36;97652.25;;;20.38;49.97
58698;BME280;44475;53.206;-6.106;2024-03-29T01:39:02;97653.88;;;20.33;50.16
58698;BME280;44475;53.206;-6.106;2024-03-29T01:41:30;97650.31;;;20.32;50.54
58698;BME280;44475;53.206;-6.106;2024-03-29T01:43:56;97648.69;;;20.38;50.23
58698;BME280;44475;53.206;-6.106;2024-03-29T01:46:24;97650.81;;;20.43;50.34
58698;BME280;44475;53.206;-6.106;2024-03-29T01:48:52;97655.03;;;20.45;50.17
58698;BME280;44475;53.206;-6.106;2024-03-29T01:51:20;97656.84;;;20.60;49.95
58698;BME280;44475;53.206;-6.106;2024-03-29T01:53:48;97652.09;;;20.69;50.18
58698;BME280;44475;53.206;-6.106;2024-03-29T01:56:16;97647.22;;;20.93;48.60
58698;BME280;44475;53.206;-6.106;2024-03-29T01:58:43;97659.16;;;21.21;48.17
58698;BME280;44475;53.206;-6.106;2024-03-29T02:01:12;97651.22;;;21.26;47.98
58698;BME280;44475;53.206;-6.106;2024-03-29T02:03:39;97648.66;;;21.18;48.17
58698;BME280;44475;53.206;-6.106;2024-03-29T02:06:07;97650.88;;;21.07;48.89
58698;BME280;44475;53.206;-6.106;2024-03-29T02:08:34;97653.47;;;20.87;49.02
58698;BME280;44475;53.206;-6.106;2024-03-29T02:11:01;97654.56;;;20.93;48.63
58698;BME280;44475;53.206;-6.106;2024-03-29T02:13:27;97660.41;;;20.89;48.90
58698;BME280;44475;53.206;-6.106;2024-03-29T02:15:53;97656.38;;;20.85;48.80
58698;BME280;44475;53.206;-6.106;2024-03-29T02:18:20;97654.75;;;20.91;48.37
58698;BME280;44475;53.206;-6.106;2024-03-29T02:20:46;97655.00;;;20.67;49.44
58698;BME280;44475;53.206;-6.106;2024-03-29T02:23:19;97648.25;;;20.63;49.34
58698;BME280;44475;53.206;-6.106;2024-03-29T02:25:45;97642.38;;;20.88;48.87
58698;BME280;44475;53.206;-6.106;2024-03-29T02:28:13;97643.44;;;20.87;49.15
58698;BME280;44475;53.206;-6.106;2024-03-29T02:30:39;97638.38;;;20.84;49.47
58698;BME280;44475;53.206;-6.106;2024-03-29T02:33:05;97635.25;;;20.87;49.52
58698;BME280;44475;53.206;-6.106;2024-03-29T02:35:32;97648.72;;;20.96;49.74
58698;BME280;44475;53.206;-6.106;2024-03-29T02:37:58;97638.72;;;21.03;48.91
58698;BME280;44475;53.206;-6.106;2024-03-29T02:40:24;97638.50;;;21.05;48.70
58698;BME280;44475;53.206;-6.106;2024-03-29T02:42:51;97633.31;;;21.10;48.41
58698;BME280;44475;53.206;-6.106;2024-03-29T02:45:17;97635.28;;;20.94;48.50
58698;BME280;44475;53.206;-6.106;2024-03-29T02:47:44;97639.31;;;20.69;49.46
58698;BME280;44475;53.206;-6.106;2024-03-29T02:50:12;97640.75;;;20.65;49.21
58698;BME280;44475;53.206;-6.106;2024-03-29T02:52:39;97628.78;;;20.59;49.20
58698;BME280;44475;53.206;-6.106;2024-03-29T02:55:05;97635.78;;;20.69;48.86
58698;BME280;44475;53.206;-6.106;2024-03-29T02:57:32;97641.09;;;20.55;49.32
58698;BME280;44475;53.206;-6.106;2024-03-29T02:59:58;97641.56;;;20.59;49.37
58698;BME280;44475;53.206;-6.106;2024-03-29T03:02:24;97633.59;;;20.57;49.23
58698;BME280;44475;53.206;-6.106;2024-03-29T03:04:50;97630.13;;;20.70;49.02
58698;BME280;44475;53.206;-6.106;2024-03-29T03:07:17;97616.38;;;20.79;48.48
58698;BME280;44475;53.206;-6.106;2024-03-29T03:10:01;97611.97;;;20.78;48.42
58698;BME280;44475;53.206;-6.106;2024-03-29T03:12:46;97619.38;;;20.62;48.84
58698;BME280;44475;53.206;-6.106;2024-03-29T03:15:13;97625.22;;;20.59;49.04
58698;BME280;44475;53.206;-6.106;2024-03-29T03:17:39;97632.28;;;20.53;49.08
58698;BME280;44475;53.206;-6.106;2024-03-29T03:20:05;97636.50;;;20.56;49.06
58698;BME280;44475;53.206;-6.106;2024-03-29T03:22:33;97625.56;;;20.78;48.48
58698;BME280;44475;53.206;-6.106;2024-03-29T03:24:59;97627.34;;;20.64;49.08
58698;BME280;44475;53.206;-6.106;2024-03-29T03:27:25;97629.16;;;20.85;48.63
58698;BME280;44475;53.206;-6.106;2024-03-29T03:29:51;97628.44;;;20.98;47.97
58698;BME280;44475;53.206;-6.106;2024-03-29T03:32:17;97627.75;;;20.89;48.12
58698;BME280;44475;53.206;-6.106;2024-03-29T03:34:44;97636.59;;;20.98;47.97
58698;BME280;44475;53.206;-6.106;2024-03-29T03:37:10;97633.69;;;21.07;47.66
58698;BME280;44475;53.206;-6.106;2024-03-29T03:39:37;97637.25;;;21.07;47.44
58698;BME280;44475;53.206;-6.106;2024-03-29T03:42:04;97634.09;;;21.04;47.51
58698;BME280;44475;53.206;-6.106;2024-03-29T03:44:30;97625.50;;;21.00;47.76
58698;BME280;44475;53.206;-6.106;2024-03-29T03:46:56;97631.78;;;21.00;47.68
58698;BME280;44475;53.206;-6.106;2024-03-29T03:49:22;97622.94;;;20.91;48.07
58698;BME280;44475;53.206;-6.106;2024-03-29T03:51:49;97616.00;;;20.89;48.07
58698;BME280;44475;53.206;-6.106;2024-03-29T03:54:15;97614.78;;;20.91;48.07
58698;BME280;44475;53.206;-6.106;2024-03-29T03:56:42;97619.66;;;21.03;47.50
58698;BME280;44475;53.206;-6.106;2024-03-29T03:59:08;97623.19;;;21.04;47.65
58698;BME280;44475;53.206;-6.106;2024-03-29T04:01:35;97606.94;;;21.10;47.04
58698;BME280;44475;53.206;-6.106;2024-03-29T04:04:01;97596.22;;;21.09;47.30
58698;BME280;44475;53.206;-6.106;2024-03-29T04:06:27;97596.63;;;21.06;47.34
58698;BME280;44475;53.206;-6.106;2024-03-29T04:08:54;97593.38;;;21.17;47.08
58698;BME280;44475;53.206;-6.106;2024-03-29T04:11:20;97601.03;;;21.07;47.08
58698;BME280;44475;53.206;-6.106;2024-03-29T04:13:46;97597.19;;;21.30;46.71
58698;BME280;44475;53.206;-6.106;2024-03-29T04:16:12;97589.00;;;21.23;47.36
58698;BME280;44475;53.206;-6.106;2024-03-29T04:18:39;97597.81;;;21.25;47.28
58698;BME280;44475;53.206;-6.106;2024-03-29T04:21:05;97600.31;;;21.27;47.35
58698;BME280;44475;53.206;-6.106;2024-03-29T04:23:31;97598.03;;;21.24;47.09
58698;BME280;44475;53.206;-6.106;2024-03-29T04:25:58;97597.41;;;21.28;46.86
58698;BME280;44475;53.206;-6.106;2024-03-29T04:28:25;97607.44;;;21.28;47.20
58698;BME280;44475;53.206;-6.106;2024-03-29T04:30:56;97613.03;;;21.13;47.27
58698;BME280;44475;53.206;-6.106;2024-03-29T04:33:23;97613.53;;;21.23;47.15
58698;BME280;44475;53.206;-6.106;2024-03-29T04:36:02;97624.81;;;21.20;47.39
58698;BME280;44475;53.206;-6.106;2024-03-29T04:38:31;97619.09;;;21.15;47.25
58698;BME280;44475;53.206;-6.106;2024-03-29T04:40:58;97619.66;;;21.03;47.73
58698;BME280;44475;53.206;-6.106;2024-03-29T04:43:28;97616.59;;;20.84;48.03
58698;BME280;44475;53.206;-6.106;2024-03-29T04:46:07;97620.78;;;20.80;48.12
58698;BME280;44475;53.206;-6.106;2024-03-29T04:48:36;97624.72;;;20.77;48.69
58698;BME280;44475;53.206;-6.106;2024-03-29T04:51:03;97635.75;;;20.98;47.97
58698;BME280;44475;53.206;-6.106;2024-03-29T04:53:29;97634.03;;;20.90;48.20
58698;BME280;44475;53.206;-6.106;2024-03-29T04:55:59;97645.91;;;20.82;47.81
58698;BME280;44475;53.206;-6.106;2024-03-29T04:58:25;97640.78;;;20.72;48.01
58698;BME280;44475;53.206;-6.106;2024-03-29T05:00:52;97644.16;;;20.74;47.89
58698;BME280;44475;53.206;-6.106;2024-03-29T05:03:19;97647.53;;;20.76;48.04
58698;BME280;44475;53.206;-6.106;2024-03-29T05:05:46;97639.53;;;20.68;47.97
58698;BME280;44475;53.206;-6.106;2024-03-29T05:08:12;97650.03;;;20.71;47.93
58698;BME280;44475;53.206;-6.106;2024-03-29T05:10:43;97645.47;;;20.78;47.88
58698;BME280;44475;53.206;-6.106;2024-03-29T05:13:09;97647.34;;;20.78;47.80
58698;BME280;44475;53.206;-6.106;2024-03-29T05:15:35;97654.69;;;20.84;47.37
58698;BME280;44475;53.206;-6.106;2024-03-29T05:18:03;97660.25;;;20.98;47.20
58698;BME280;44475;53.206;-6.106;2024-03-29T05:20:30;97659.41;;;20.97;47.12
58698;BME280;44475;53.206;-6.106;2024-03-29T05:22:57;97652.91;;;20.98;47.43
58698;BME280;44475;53.206;-6.106;2024-03-29T05:25:23;97646.47;;;21.06;46.79
58698;BME280;44475;53.206;-6.106;2024-03-29T05:27:50;97658.16;;;21.00;47.12
58698;BME280;44475;53.206;-6.106;2024-03-29T05:30:16;97641.28;;;20.83;47.53
58698;BME280;44475;53.206;-6.106;2024-03-29T05:32:43;97663.31;;;20.88;47.15
58698;BME280;44475;53.206;-6.106;2024-03-29T05:35:10;97668.56;;;20.60;47.86
58698;BME280;44475;53.206;-6.106;2024-03-29T05:37:37;97664.06;;;20.53;48.18
58698;BME280;44475;53.206;-6.106;2024-03-29T05:40:04;97664.22;;;20.44;48.30
58698;BME280;44475;53.206;-6.106;2024-03-29T05:42:33;97673.59;;;20.41;48.50
58698;BME280;44475;53.206;-6.106;2024-03-29T05:45:00;97669.19;;;20.40;48.44
58698;BME280;44475;53.206;-6.106;2024-03-29T05:47:26;97683.91;;;20.68;48.06
58698;BME280;44475;53.206;-6.106;2024-03-29T05:49:53;97687.19;;;20.64;47.84
58698;BME280;44475;53.206;-6.106;2024-03-29T05:52:19;97677.56;;;20.61;47.93
58698;BME280;44475;53.206;-6.106;2024-03-29T05:54:47;97678.13;;;20.56;47.99
58698;BME280;44475;53.206;-6.106;2024-03-29T05:57:13;97676.50;;;20.62;47.81
58698;BME280;44475;53.206;-6.106;2024-03-29T05:59:39;97682.25;;;20.74;47.62
58698;BME280;44475;53.206;-6.106;2024-03-29T06:02:05;97675.97;;;20.74;47.56
58698;BME280;44475;53.206;-6.106;2024-03-29T06:04:32;97677.72;;;20.81;47.65
58698;BME280;44475;53.206;-6.106;2024-03-29T06:07:05;97684.00;;;20.82;47.83
58698;BME280;44475;53.206;-6.106;2024-03-29T06:09:31;97667.69;;;20.82;47.90
58698;BME280;44475;53.206;-6.106;2024-03-29T06:11:59;97672.72;;;20.85;47.82
58698;BME280;44475;53.206;-6.106;2024-03-29T06:14:26;97670.44;;;20.89;47.86
58698;BME280;44475;53.206;-6.106;2024-03-29T06:17:11;97669.59;;;20.88;47.68
58698;BME280;44475;53.206;-6.106;2024-03-29T06:19:54;97672.31;;;20.88;47.71
58698;BME280;44475;53.206;-6.106;2024-03-29T06:22:24;97675.72;;;20.97;47.24
58698;BME280;44475;53.206;-6.106;2024-03-29T06:24:51;97670.63;;;20.87;47.28
58698;BME280;44475;53.206;-6.106;2024-03-29T06:27:21;97677.56;;;20.90;47.05
58698;BME280;44475;53.206;-6.106;2024-03-29T06:29:49;97666.03;;;20.88;46.95
58698;BME280;44475;53.206;-6.106;2024-03-29T06:32:16;97675.72;;;20.97;46.77
58698;BME280;44475;53.206;-6.106;2024-03-29T06:34:44;97672.78;;;20.92;46.77
58698;BME280;44475;53.206;-6.106;2024-03-29T06:37:11;97681.69;;;20.79;47.27
58698;BME280;44475;53.206;-6.106;2024-03-29T06:39:37;97682.00;;;20.98;46.96
58698;BME280;44475;53.206;-6.106;2024-03-29T06:42:04;97679.94;;;21.00;46.86
58698;BME280;44475;53.206;-6.106;2024-03-29T06:44:33;97681.94;;;21.13;46.32
58698;BME280;44475;53.206;-6.106;2024-03-29T06:46:59;97679.91;;;21.22;46.29
58698;BME280;44475;53.206;-6.106;2024-03-29T06:49:25;97677.38;;;21.20;46.21
58698;BME280;44475;53.206;-6.106;2024-03-29T06:51:52;97677.06;;;21.08;46.39
58698;BME280;44475;53.206;-6.106;2024-03-29T06:54:19;97672.00;;;21.05;46.35
58698;BME280;44475;53.206;-6.106;2024-03-29T06:56:49;97680.81;;;21.07;45.87
58698;BME280;44475;53.206;-6.106;2024-03-29T06:59:15;97700.25;;;21.04;46.46
58698;BME280;44475;53.206;-6.106;2024-03-29T07:01:41;97703.75;;;20.91;46.30
58698;BME280;44475;53.206;-6.106;2024-03-29T07:04:08;97701.88;;;20.91;46.50
58698;BME280;44475;53.206;-6.106;2024-03-29T07:06:34;97711.38;;;21.03;46.39
58698;BME280;44475;53.206;-6.106;2024-03-29T07:09:00;97705.31;;;21.07;46.20
58698;BME280;44475;53.206;-6.106;2024-03-29T07:11:26;97712.41;;;21.30;46.07
58698;BME280;44475;53.206;-6.106;2024-03-29T07:13:52;97720.28;;;21.18;46.41
58698;BME280;44475;53.206;-6.106;2024-03-29T07:16:19;97725.56;;;21.20;46.16
58698;BME280;44475;53.206;-6.106;2024-03-29T07:18:45;97724.75;;;21.26;46.14
58698;BME280;44475;53.206;-6.106;2024-03-29T07:21:11;97723.75;;;20.83;47.19
58698;BME280;44475;53.206;-6.106;2024-03-29T07:23:37;97718.41;;;20.68;47.46
58698;BME280;44475;53.206;-6.106;2024-03-29T07:26:05;97711.66;;;20.64;46.93
58698;BME280;44475;53.206;-6.106;2024-03-29T07:28:31;97716.03;;;20.58;47.09
58698;BME280;44475;53.206;-6.106;2024-03-29T07:30:58;97716.03;;;20.58;46.87
58698;BME280;44475;53.206;-6.106;2024-03-29T07:33:30;97704.88;;;20.53;47.05
58698;BME280;44475;53.206;-6.106;2024-03-29T07:35:57;97709.69;;;20.50;47.11
58698;BME280;44475;53.206;-6.106;2024-03-29T07:38:23;97707.50;;;20.61;47.05
58698;BME280;44475;53.206;-6.106;2024-03-29T07:40:53;97711.25;;;20.60;46.60
58698;BME280;44475;53.206;-6.106;2024-03-29T07:43:22;97693.56;;;20.49;47.02
58698;BME280;44475;53.206;-6.106;2024-03-29T07:45:48;97709.91;;;20.78;48.47
58698;BME280;44475;53.206;-6.106;2024-03-29T07:48:16;97718.09;;;20.78;48.60
58698;BME280;44475;53.206;-6.106;2024-03-29T07:50:44;97720.69;;;20.64;48.35
58698;BME280;44475;53.206;-6.106;2024-03-29T07:53:11;97716.34;;;20.70;48.18
58698;BME280;44475;53.206;-6.106;2024-03-29T07:55:41;97721.97;;;20.68;48.21
58698;BME280;44475;53.206;-6.106;2024-03-29T07:58:07;97722.75;;;20.62;48.12
58698;BME280;44475;53.206;-6.106;2024-03-29T08:00:38;97721.28;;;20.59;47.90
58698;BME280;44475;53.206;-6.106;2024-03-29T08:03:06;97726.97;;;20.65;48.08
58698;BME280;44475;53.206;-6.106;2024-03-29T08:05:32;97729.69;;;20.65;47.79
58698;BME280;44475;53.206;-6.106;2024-03-29T08:08:00;97731.94;;;20.83;47.18
58698;BME280;44475;53.206;-6.106;2024-03-29T08:10:26;97736.28;;;20.77;47.29
58698;BME280;44475;53.206;-6.106;2024-03-29T08:12:52;97732.91;;;20.75;47.62
58698;BME280;44475;53.206;-6.106;2024-03-29T08:15:19;97740.50;;;20.80;47.46
58698;BME280;44475;53.206;-6.106;2024-03-29T08:17:46;97748.22;;;20.76;47.21
58698;BME280;44475;53.206;-6.106;2024-03-29T08:20:12;97750.34;;;20.81;47.07
58698;BME280;44475;53.206;-6.106;2024-03-29T08:22:38;97760.25;;;20.89;47.36
58698;BME280;44475;53.206;-6.106;2024-03-29T08:25:05;97754.63;;;20.90;47.08
58698;BME280;44475;53.206;-6.106;2024-03-29T08:27:32;97760.44;;;20.87;46.98
58698;BME280;44475;53.206;-6.106;2024-03-29T08:29:58;97764.47;;;20.91;46.71
58698;BME280;44475;53.206;-6.106;2024-03-29T08:32:24;97761.28;;;20.88;47.55
58698;BME280;44475;53.206;-6.106;2024-03-29T08:34:50;97759.75;;;20.78;47.54
58698;BME280;44475;53.206;-6.106;2024-03-29T08:37:18;97754.69;;;20.75;47.42
58698;BME280;44475;53.206;-6.106;2024-03-29T08:39:44;97764.16;;;20.79;47.14
58698;BME280;44475;53.206;-6.106;2024-03-29T08:42:11;97753.59;;;20.91;47.25
58698;BME280;44475;53.206;-6.106;2024-03-29T08:44:38;97749.88;;;20.99;46.98
58698;BME280;44475;53.206;-6.106;2024-03-29T08:47:05;97741.00;;;20.90;46.70
58698;BME280;44475;53.206;-6.106;2024-03-29T08:49:31;97746.97;;;21.01;46.51
58698;BME280;44475;53.206;-6.106;2024-03-29T08:51:58;97750.41;;;20.88;47.09
58698;BME280;44475;53.206;-6.106;2024-03-29T08:54:26;97751.94;;;20.97;47.01
58698;BME280;44475;53.206;-6.106;2024-03-29T08:56:54;97752.94;;;20.89;47.07
58698;BME280;44475;53.206;-6.106;2024-03-29T08:59:20;97752.66;;;20.84;46.80
58698;BME280;44475;53.206;-6.106;2024-03-29T09:01:46;97759.03;;;20.91;46.50
58698;BME280;44475;53.206;-6.106;2024-03-29T09:04:15;97759.75;;;20.78;47.16
58698;BME280;44475;53.206;-6.106;2024-03-29T09:06:42;97761.28;;;20.88;46.83
58698;BME280;44475;53.206;-6.106;2024-03-29T09:09:08;97758.28;;;20.83;47.12
58698;BME280;44475;53.206;-6.106;2024-03-29T09:11:36;97758.75;;;20.86;46.88
58698;BME280;44475;53.206;-6.106;2024-03-29T09:14:02;97767.31;;;20.83;47.04
58698;BME280;44475;53.206;-6.106;2024-03-29T09:16:30;97767.31;;;20.83;47.19
58698;BME280;44475;53.206;-6.106;2024-03-29T09:18:57;97772.56;;;20.85;47.21
58698;BME280;44475;53.206;-6.106;2024-03-29T09:21:23;97766.19;;;20.99;46.85
58698;BME280;44475;53.206;-6.106;2024-03-29T09:23:49;97769.78;;;21.00;46.46
58698;BME280;44475;53.206;-6.106;2024-03-29T09:26:19;97764.97;;;21.02;46.26
58698;BME280;44475;53.206;-6.106;2024-03-29T09:28:45;97764.72;;;20.97;46.52
58698;BME280;44475;53.206;-6.106;2024-03-29T09:31:11;97772.03;;;20.96;46.97
58698;BME280;44475;53.206;-6.106;2024-03-29T09:33:38;97772.41;;;20.93;46.62
58698;BME280;44475;53.206;-6.106;2024-03-29T09:36:04;97776.91;;;21.01;46.65
58698;BME280;44475;53.206;-6.106;2024-03-29T09:38:30;97780.69;;;21.07;46.80
58698;BME280;44475;53.206;-6.106;2024-03-29T09:41:23;97768.59;;;20.87;47.08
58698;BME280;44475;53.206;-6.106;2024-03-29T09:43:52;97771.84;;;20.98;47.12
58698;BME280;44475;53.206;-6.106;2024-03-29T09:46:21;97771.25;;;21.03;46.63
58698;BME280;44475;53.206;-6.106;2024-03-29T09:48:49;97785.50;;;21.05;46.96
58698;BME280;44475;53.206;-6.106;2024-03-29T09:51:16;97777.31;;;21.05;46.55
58698;BME280;44475;53.206;-6.106;2024-03-29T09:53:44;97773.00;;;21.10;46.84
58698;BME280;44475;53.206;-6.106;2024-03-29T09:56:11;97787.97;;;20.99;47.08
58698;BME280;44475;53.206;-6.106;2024-03-29T09:58:38;97780.81;;;20.91;47.04
58698;BME280;44475;53.206;-6.106;2024-03-29T10:01:06;97785.72;;;21.03;46.73
58698;BME280;44475;53.206;-6.106;2024-03-29T10:03:40;97791.34;;;21.01;46.81
58698;BME280;44475;53.206;-6.106;2024-03-29T10:06:06;97786.34;;;21.05;46.80
58698;BME280;44475;53.206;-6.106;2024-03-29T10:08:38;97796.38;;;21.05;46.89
58698;BME280;44475;53.206;-6.106;2024-03-29T10:11:05;97789.72;;;21.07;47.11
58698;BME280;44475;53.206;-6.106;2024-03-29T10:13:31;97784.06;;;21.09;47.02
58698;BME280;44475;53.206;-6.106;2024-03-29T10:15:57;97791.00;;;21.11;46.43
58698;BME280;44475;53.206;-6.106;2024-03-29T10:18:28;97790.16;;;21.11;46.14
58698;BME280;44475;53.206;-6.106;2024-03-29T10:21:00;97783.53;;;21.14;46.05
58698;BME280;44475;53.206;-6.106;2024-03-29T10:23:27;97787.72;;;21.16;46.17
58698;BME280;44475;53.206;-6.106;2024-03-29T10:25:54;97778.97;;;21.21;45.58
58698;BME280;44475;53.206;-6.106;2024-03-29T10:28:20;97782.56;;;21.28;45.31
58698;BME280;44475;53.206;-6.106;2024-03-29T10:30:47;97782.38;;;21.30;45.23
58698;BME280;44475;53.206;-6.106;2024-03-29T10:33:14;97784.72;;;21.33;45.20
58698;BME280;44475;53.206;-6.106;2024-03-29T10:35:44;97777.13;;;21.28;45.38
58698;BME280;44475;53.206;-6.106;2024-03-29T10:38:11;97780.25;;;21.25;45.40
58698;BME280;44475;53.206;-6.106;2024-03-29T10:40:42;97769.16;;;21.27;45.65
58698;BME280;44475;53.206;-6.106;2024-03-29T10:43:10;97779.19;;;21.26;45.72
58698;BME280;44475;53.206;-6.106;2024-03-29T10:45:42;97773.56;;;21.28;45.21
58698;BME280;44475;53.206;-6.106;2024-03-29T10:48:09;97771.22;;;21.25;45.67
58698;BME280;44475;53.206;-6.106;2024-03-29T10:50:37;97766.59;;;21.18;45.71
58698;BME280;44475;53.206;-6.106;2024-03-29T10:53:05;97769.34;;;21.25;45.68
58698;BME280;44475;53.206;-6.106;2024-03-29T10:55:35;97767.44;;;21.19;45.81
58698;BME280;44475;53.206;-6.106;2024-03-29T10:58:03;97762.44;;;21.23;45.35
58698;BME280;44475;53.206;-6.106;2024-03-29T11:00:34;97765.75;;;21.18;45.48
58698;BME280;44475;53.206;-6.106;2024-03-29T11:03:23;97768.06;;;21.21;45.56
58698;BME280;44475;53.206;-6.106;2024-03-29T11:05:57;97772.63;;;21.14;45.83
58698;BME280;44475;53.206;-6.106;2024-03-29T11:08:27;97777.03;;;21.15;45.82
58698;BME280;44475;53.206;-6.106;2024-03-29T11:10:59;97787.72;;;21.16;45.76
58698;BME280;44475;53.206;-6.106;2024-03-29T11:13:50;97784.03;;;21.24;45.21
58698;BME280;44475;53.206;-6.106;2024-03-29T11:16:18;97791.75;;;21.20;45.33
58698;BME280;44475;53.206;-6.106;2024-03-29T11:18:47;97797.41;;;21.04;46.12
58698;BME280;44475;53.206;-6.106;2024-03-29T11:21:18;97793.34;;;21.15;45.59
58698;BME280;44475;53.206;-6.106;2024-03-29T11:23:54;97797.75;;;21.16;45.43
58698;BME280;44475;53.206;-6.106;2024-03-29T11:26:23;97800.75;;;21.21;45.34
58698;BME280;44475;53.206;-6.106;2024-03-29T11:28:52;97797.13;;;21.14;45.74
58698;BME280;44475;53.206;-6.106;2024-03-29T11:31:23;97796.84;;;21.08;45.63
58698;BME280;44475;53.206;-6.106;2024-03-29T11:33:50;97801.91;;;21.11;45.86
58698;BME280;44475;53.206;-6.106;2024-03-29T11:36:38;97800.69;;;21.14;45.69
58698;BME280;44475;53.206;-6.106;2024-03-29T11:39:05;97797.88;;;21.07;45.79
58698;BME280;44475;53.206;-6.106;2024-03-29T11:41:31;97798.16;;;21.13;45.68
58698;BME280;44475;53.206;-6.106;2024-03-29T11:43:58;97793.94;;;21.10;45.92
58698;BME280;44475;53.206;-6.106;2024-03-29T11:46:25;97804.25;;;21.15;45.90
58698;BME280;44475;53.206;-6.106;2024-03-29T11:48:51;97797.56;;;21.17;45.45
58698;BME280;44475;53.206;-6.106;2024-03-29T11:51:19;97807.53;;;21.10;45.69
58698;BME280;44475;53.206;-6.106;2024-03-29T11:53:50;97800.09;;;21.19;45.66
58698;BME280;44475;53.206;-6.106;2024-03-29T11:56:17;97818.69;;;21.15;45.63
58698;BME280;44475;53.206;-6.106;2024-03-29T11:58:44;97827.09;;;21.14;45.87
58698;BME280;44475;53.206;-6.106;2024-03-29T12:01:11;97831.00;;;21.11;45.74
58698;BME280;44475;53.206;-6.106;2024-03-29T12:03:41;97838.53;;;21.09;45.69
58698;BME280;44475;53.206;-6.106;2024-03-29T12:06:08;97847.81;;;21.15;45.59
58698;BME280;44475;53.206;-6.106;2024-03-29T12:08:41;97836.63;;;21.09;45.68
58698;BME280;44475;53.206;-6.106;2024-03-29T12:11:09;97831.84;;;21.11;46.01
58698;BME280;44475;53.206;-6.106;2024-03-29T12:13:35;97833.06;;;21.09;45.83
58698;BME280;44475;53.206;-6.106;2024-03-29T12:16:02;97829.31;;;21.10;46.04
58698;BME280;44475;53.206;-6.106;2024-03-29T12:18:29;97835.25;;;21.14;45.93
58698;BME280;44475;53.206;-6.106;2024-03-29T12:20:58;97833.88;;;21.03;45.89
58698;BME280;44475;53.206;-6.106;2024-03-29T12:23:25;97836.34;;;21.19;45.55
58698;BME280;44475;53.206;-6.106;2024-03-29T12:25:56;97835.31;;;21.20;45.72
58698;BME280;44475;53.206;-6.106;2024-03-29T12:28:24;97827.53;;;21.17;45.48
58698;BME280;44475;53.206;-6.106;2024-03-29T12:30:51;97831.09;;;21.18;45.49
58698;BME280;44475;53.206;-6.106;2024-03-29T12:33:20;97832.88;;;21.10;45.81
58698;BME280;44475;53.206;-6.106;2024-03-29T12:35:52;97837.75;;;21.15;45.86
58698;BME280;44475;53.206;-6.106;2024-03-29T12:38:22;97844.31;;;21.21;45.78
58698;BME280;44475;53.206;-6.106;2024-03-29T12:40:49;97847.53;;;21.09;45.86
58698;BME280;44475;53.206;-6.106;2024-03-29T12:43:21;97850.19;;;21.03;45.92
58698;BME280;44475;53.206;-6.106;2024-03-29T12:45:48;97840.47;;;21.15;46.03
58698;BME280;44475;53.206;-6.106;2024-03-29T12:48:17;97841.25;;;21.31;45.30
58698;BME280;44475;53.206;-6.106;2024-03-29T12:50:45;97841.22;;;21.24;45.31
58698;BME280;44475;53.206;-6.106;2024-03-29T12:53:13;97839.44;;;21.16;45.70